Airfield :
LOGIN :

Register | Disclaimer

   EN    FR    IT 

 










Legend :    VFR   Marginal VFR   IFR   Intensive IFR   Very Intensive IFR
Visi :
Ceiling :
>= 8 km
>= 3000ft
5 to 8 km
1000 to 3000 ft
1500m to 5 km
500 to 1000 ft
800 to 1500m
200 to 500 ft
< 800m
< 200 ft
Symbols :   Thunderstorms  Fog  Heavy snow  Heavy precipitations  Wind > 20 kt
SIGMETs :     Misc.  Thunderstorms  Icing  Turbulence  Mountain Waves  Volcanic Ashes







- Airport Elevation : 0 ft


ETEB - Ansbach Army Heliport

CURRENT METAR :
  • 200756Z AUTO 35007KT 9999 FEW130 15/13 A2960 RMK AO2 SLP030 T01540127 $

EXPIRED METARs :
  • 200656Z AUTO 35007KT 9999 FEW210 14/13 A2960 RMK AO2 DZB17E27 SLP030 P0000 T01400129 $
  • 200627Z AUTO 31006KT 9999 FEW065 13/13 A2960 RMK AO2 DZB17E27 SLP028 $
  • 200617Z AUTO 31006KT 9999 -DZ FEW065 13/13 A2960 RMK AO2 DZB17 SLP028 $
  • 200556Z AUTO 30004KT 9999 FEW050 13/13 A2960 RMK AO2 SLP030 T01300130 10130 20101 55002 $

TAF TAF ETEB
Valid from the 20 at 05:00 until the 21 at 11:00 UTC


200502Z 2005/2111 VRB06KT 9999 SCT030 BKN060 620804 QNH2956INS
BECMG 2010/2011 35009KT 8000 -SHRA VCTS BKN020CB 620804 QNH2956INS
TEMPO 2011/2015 03010G15KT 4000 -TSRA BKN010CB
BECMG 2019/2020 31006KT 8000 -SHRA OVC015 620804 QNH2958INS
BECMG 2105/2106 31012G20KT 8000 -SHRA OVC009 620809 QNH2963INS
TEMPO 2106/2111 31015G25KT OVC005 TX19/2014Z TN10/2104Z
No reported NOTAMs for that airfield.



MET'MAP, your aeronautical weather chart ! - Copyright ORBIFLY December 2007 - Disclaimer

ORBIFLY MET'MAP TEAM :

Programming & Development : Alexandra Zaïnal
Concept & Development : Baudouin d'Aumeries
Co-Development & Prog : Marc-Olivier Méhu
Technical & hardware support : Manuel Goepfert

Contact : metmap@orbifly.com




SOURCES & CREDITS :

   NOAA